sensor_id;sensor_type;location;lat;lon;timestamp;pressure;altitude;pressure_sealevel;temperature;humidity
61035;BME280;46916;40.564;-7.958;2023-06-05T00:01:45;97267.66;;;18.98;79.11
61035;BME280;46916;40.564;-7.958;2023-06-05T00:04:04;97261.97;;;19.01;79.18
61035;BME280;46916;40.564;-7.958;2023-06-05T00:06:05;97261.97;;;19.01;79.21
61035;BME280;46916;40.564;-7.958;2023-06-05T00:08:06;97258.31;;;19.02;78.88
61035;BME280;46916;40.564;-7.958;2023-06-05T00:10:08;97261.97;;;19.01;79.08
61035;BME280;46916;40.564;-7.958;2023-06-05T00:12:09;97262.78;;;19.02;79.11
61035;BME280;46916;40.564;-7.958;2023-06-05T00:14:09;97262.78;;;19.02;79.43
61035;BME280;46916;40.564;-7.958;2023-06-05T00:16:28;97267.91;;;19.03;79.30
61035;BME280;46916;40.564;-7.958;2023-06-05T00:18:30;97258.31;;;19.02;78.79
61035;BME280;46916;40.564;-7.958;2023-06-05T00:20:31;97260.31;;;19.00;78.87
61035;BME280;46916;40.564;-7.958;2023-06-05T00:22:50;97262.97;;;19.00;79.22
61035;BME280;46916;40.564;-7.958;2023-06-05T00:24:51;97256.41;;;18.96;79.27
61035;BME280;46916;40.564;-7.958;2023-06-05T00:27:10;97261.34;;;18.99;79.53
61035;BME280;46916;40.564;-7.958;2023-06-05T00:29:11;97259.69;;;18.98;79.39
61035;BME280;46916;40.564;-7.958;2023-06-05T00:31:12;97262.34;;;18.98;79.52
61035;BME280;46916;40.564;-7.958;2023-06-05T00:33:18;97264.81;;;19.00;79.89
61035;BME280;46916;40.564;-7.958;2023-06-05T00:35:20;97259.50;;;19.00;79.44
61035;BME280;46916;40.564;-7.958;2023-06-05T00:37:20;97257.06;;;18.98;79.68
61035;BME280;46916;40.564;-7.958;2023-06-05T00:39:21;97253.75;;;18.96;79.69
61035;BME280;46916;40.564;-7.958;2023-06-05T00:41:23;97255.78;;;18.94;79.76
61035;BME280;46916;40.564;-7.958;2023-06-05T00:43:23;97256.97;;;18.92;79.74
61035;BME280;46916;40.564;-7.958;2023-06-05T00:45:24;97258.78;;;18.91;79.75
61035;BME280;46916;40.564;-7.958;2023-06-05T00:47:25;97262.47;;;18.90;79.94
61035;BME280;46916;40.564;-7.958;2023-06-05T00:49:26;97258.16;;;18.89;80.02
61035;BME280;46916;40.564;-7.958;2023-06-05T00:51:46;97258.16;;;18.89;80.08
61035;BME280;46916;40.564;-7.958;2023-06-05T00:53:47;97258.78;;;18.91;80.17
61035;BME280;46916;40.564;-7.958;2023-06-05T00:55:47;97255.13;;;18.92;80.08
61035;BME280;46916;40.564;-7.958;2023-06-05T00:57:49;97252.28;;;18.94;80.33
61035;BME280;46916;40.564;-7.958;2023-06-05T00:59:50;97252.09;;;18.95;80.09
61035;BME280;46916;40.564;-7.958;2023-06-05T01:01:51;97259.06;;;18.96;79.99
61035;BME280;46916;40.564;-7.958;2023-06-05T01:03:52;97250.06;;;18.97;80.01
61035;BME280;46916;40.564;-7.958;2023-06-05T01:05:53;97245.53;;;18.91;80.51
61035;BME280;46916;40.564;-7.958;2023-06-05T01:07:54;97243.25;;;18.88;80.74
61035;BME280;46916;40.564;-7.958;2023-06-05T01:09:55;97245.44;;;18.85;80.88
61035;BME280;46916;40.564;-7.958;2023-06-05T01:12:07;97246.25;;;18.85;80.88
61035;BME280;46916;40.564;-7.958;2023-06-05T01:16:16;97241.97;;;18.84;80.44
61035;BME280;46916;40.564;-7.958;2023-06-05T01:18:17;97244.81;;;18.83;80.71
61035;BME280;46916;40.564;-7.958;2023-06-05T01:20:20;97241.34;;;18.82;80.95
61035;BME280;46916;40.564;-7.958;2023-06-05T01:22:20;97247.63;;;18.81;80.85
61035;BME280;46916;40.564;-7.958;2023-06-05T01:24:21;97241.88;;;18.77;81.00
61035;BME280;46916;40.564;-7.958;2023-06-05T01:26:33;97232.66;;;18.73;81.14
61035;BME280;46916;40.564;-7.958;2023-06-05T01:28:37;97232.66;;;18.73;81.03
61035;BME280;46916;40.564;-7.958;2023-06-05T01:33:09;97238.97;;;18.72;81.21
61035;BME280;46916;40.564;-7.958;2023-06-05T01:35:13;97235.50;;;18.72;81.26
61035;BME280;46916;40.564;-7.958;2023-06-05T01:37:17;97231.81;;;18.73;81.16
61035;BME280;46916;40.564;-7.958;2023-06-05T01:39:19;97226.53;;;18.73;81.34
61035;BME280;46916;40.564;-7.958;2023-06-05T01:41:22;97226.34;;;18.74;81.28
61035;BME280;46916;40.564;-7.958;2023-06-05T01:43:23;97227.19;;;18.75;81.32
61035;BME280;46916;40.564;-7.958;2023-06-05T01:45:24;97224.53;;;18.75;81.34
61035;BME280;46916;40.564;-7.958;2023-06-05T01:47:25;97228.34;;;18.72;81.44
61035;BME280;46916;40.564;-7.958;2023-06-05T01:49:26;97231.81;;;18.73;81.43
61035;BME280;46916;40.564;-7.958;2023-06-05T01:51:28;97222.88;;;18.74;81.52
61035;BME280;46916;40.564;-7.958;2023-06-05T01:53:29;97226.34;;;18.74;81.22
61035;BME280;46916;40.564;-7.958;2023-06-05T01:55:30;97224.69;;;18.73;81.48
61035;BME280;46916;40.564;-7.958;2023-06-05T01:57:31;97223.88;;;18.73;81.59
61035;BME280;46916;40.564;-7.958;2023-06-05T01:59:34;97226.91;;;18.70;81.61
61035;BME280;46916;40.564;-7.958;2023-06-05T02:01:35;97232.56;;;18.67;81.79
61035;BME280;46916;40.564;-7.958;2023-06-05T02:03:36;97236.22;;;18.66;81.49
61035;BME280;46916;40.564;-7.958;2023-06-05T02:05:37;97234.50;;;18.58;81.80
61035;BME280;46916;40.564;-7.958;2023-06-05T02:07:39;97232.75;;;18.50;82.13
61035;BME280;46916;40.564;-7.958;2023-06-05T02:09:42;97228.81;;;18.46;82.25
61035;BME280;46916;40.564;-7.958;2023-06-05T02:11:42;97233.88;;;18.41;82.33
61035;BME280;46916;40.564;-7.958;2023-06-05T02:13:45;97230.19;;;18.42;82.43
61035;BME280;46916;40.564;-7.958;2023-06-05T02:15:50;97237.50;;;18.40;82.71
61035;BME280;46916;40.564;-7.958;2023-06-05T02:17:56;97233.03;;;18.41;82.58
61035;BME280;46916;40.564;-7.958;2023-06-05T02:19:58;97229.38;;;18.42;82.71
61035;BME280;46916;40.564;-7.958;2023-06-05T02:21:58;97222.25;;;18.42;82.87
61035;BME280;46916;40.564;-7.958;2023-06-05T02:23:59;97215.13;;;18.43;82.86
61035;BME280;46916;40.564;-7.958;2023-06-05T02:26:00;97214.09;;;18.44;82.84
61035;BME280;46916;40.564;-7.958;2023-06-05T02:28:01;97210.63;;;18.43;82.78
61035;BME280;46916;40.564;-7.958;2023-06-05T02:30:01;97215.94;;;18.43;82.77
61035;BME280;46916;40.564;-7.958;2023-06-05T02:32:06;97217.75;;;18.43;83.08
61035;BME280;46916;40.564;-7.958;2023-06-05T02:34:06;97213.28;;;18.43;83.16
61035;BME280;46916;40.564;-7.958;2023-06-05T02:36:07;97209.00;;;18.42;83.00
61035;BME280;46916;40.564;-7.958;2023-06-05T02:38:09;97199.19;;;18.43;83.11
61035;BME280;46916;40.564;-7.958;2023-06-05T02:40:13;97204.50;;;18.43;83.32
61035;BME280;46916;40.564;-7.958;2023-06-05T02:42:14;97208.19;;;18.42;83.29
61035;BME280;46916;40.564;-7.958;2023-06-05T02:44:16;97217.75;;;18.43;83.20
61035;BME280;46916;40.564;-7.958;2023-06-05T02:46:16;97215.47;;;18.40;83.69
61035;BME280;46916;40.564;-7.958;2023-06-05T02:48:19;97210.16;;;18.40;83.59
61035;BME280;46916;40.564;-7.958;2023-06-05T02:50:20;97215.31;;;18.41;83.58
61035;BME280;46916;40.564;-7.958;2023-06-05T02:52:25;97217.75;;;18.43;83.73
61035;BME280;46916;40.564;-7.958;2023-06-05T02:54:26;97212.66;;;18.41;83.60
61035;BME280;46916;40.564;-7.958;2023-06-05T02:56:31;97215.94;;;18.43;83.78
61035;BME280;46916;40.564;-7.958;2023-06-05T02:58:33;97209.00;;;18.42;83.92
61035;BME280;46916;40.564;-7.958;2023-06-05T03:00:38;97214.28;;;18.42;83.82
61035;BME280;46916;40.564;-7.958;2023-06-05T03:02:39;97211.81;;;18.41;84.13
61035;BME280;46916;40.564;-7.958;2023-06-05T03:04:40;97212.66;;;18.41;83.89
61035;BME280;46916;40.564;-7.958;2023-06-05T03:06:41;97211.66;;;18.42;84.08
61035;BME280;46916;40.564;-7.958;2023-06-05T03:08:44;97213.63;;;18.40;84.30
61035;BME280;46916;40.564;-7.958;2023-06-05T03:10:49;97204.41;;;18.36;84.60
61035;BME280;46916;40.564;-7.958;2023-06-05T03:12:52;97207.06;;;18.36;85.29
61035;BME280;46916;40.564;-7.958;2023-06-05T03:14:53;97210.53;;;18.37;85.03
61035;BME280;46916;40.564;-7.958;2023-06-05T03:16:54;97207.25;;;18.35;84.51
61035;BME280;46916;40.564;-7.958;2023-06-05T03:18:56;97203.94;;;18.32;84.52
61035;BME280;46916;40.564;-7.958;2023-06-05T03:20:57;97199.03;;;18.29;84.73
61035;BME280;46916;40.564;-7.958;2023-06-05T03:22:58;97192.28;;;18.27;84.65
61035;BME280;46916;40.564;-7.958;2023-06-05T03:24:59;97189.63;;;18.27;84.90
61035;BME280;46916;40.564;-7.958;2023-06-05T03:27:00;97203.06;;;18.25;85.00
61035;BME280;46916;40.564;-7.958;2023-06-05T03:29:01;97203.22;;;18.24;84.96
61035;BME280;46916;40.564;-7.958;2023-06-05T03:31:04;97201.78;;;18.21;85.18
61035;BME280;46916;40.564;-7.958;2023-06-05T03:33:23;97196.50;;;18.21;85.03
61035;BME280;46916;40.564;-7.958;2023-06-05T03:35:26;97192.38;;;18.19;85.06
61035;BME280;46916;40.564;-7.958;2023-06-05T03:37:30;97195.66;;;18.21;84.93
61035;BME280;46916;40.564;-7.958;2023-06-05T03:39:30;97194.00;;;18.20;84.90
61035;BME280;46916;40.564;-7.958;2023-06-05T03:41:33;97195.66;;;18.21;84.89
61035;BME280;46916;40.564;-7.958;2023-06-05T03:43:34;97195.66;;;18.21;84.89
61035;BME280;46916;40.564;-7.958;2023-06-05T03:45:37;97193.84;;;18.21;84.86
61035;BME280;46916;40.564;-7.958;2023-06-05T03:47:41;97190.38;;;18.21;84.96
61035;BME280;46916;40.564;-7.958;2023-06-05T03:49:43;97188.06;;;18.18;85.13
61035;BME280;46916;40.564;-7.958;2023-06-05T03:51:47;97194.75;;;18.14;85.45
61035;BME280;46916;40.564;-7.958;2023-06-05T03:53:49;97193.13;;;18.13;85.42
61035;BME280;46916;40.564;-7.958;2023-06-05T03:55:55;97193.00;;;18.06;85.53
61035;BME280;46916;40.564;-7.958;2023-06-05T03:58:01;97195.56;;;17.99;86.02
61035;BME280;46916;40.564;-7.958;2023-06-05T04:00:05;97196.22;;;18.01;85.84
61035;BME280;46916;40.564;-7.958;2023-06-05T04:02:14;97200.31;;;18.04;85.63
61035;BME280;46916;40.564;-7.958;2023-06-05T04:04:14;97198.13;;;18.07;85.35
61035;BME280;46916;40.564;-7.958;2023-06-05T04:06:16;97190.81;;;18.10;85.31
61035;BME280;46916;40.564;-7.958;2023-06-05T04:08:17;97194.09;;;18.12;85.19
61035;BME280;46916;40.564;-7.958;2023-06-05T04:10:17;97196.75;;;18.12;84.71
61035;BME280;46916;40.564;-7.958;2023-06-05T04:12:18;97197.13;;;18.09;84.57
61035;BME280;46916;40.564;-7.958;2023-06-05T04:14:20;97200.59;;;18.09;84.50
61035;BME280;46916;40.564;-7.958;2023-06-05T04:16:21;97198.13;;;18.07;84.52
61035;BME280;46916;40.564;-7.958;2023-06-05T04:18:22;97209.72;;;18.06;84.75
61035;BME280;46916;40.564;-7.958;2023-06-05T04:20:25;97205.59;;;18.04;84.93
61035;BME280;46916;40.564;-7.958;2023-06-05T04:22:26;97199.47;;;18.03;85.04
61035;BME280;46916;40.564;-7.958;2023-06-05T04:24:27;97203.16;;;18.02;85.14
61035;BME280;46916;40.564;-7.958;2023-06-05T04:26:29;97199.88;;;18.00;85.32
61035;BME280;46916;40.564;-7.958;2023-06-05T04:28:31;97200.69;;;18.01;85.37
61035;BME280;46916;40.564;-7.958;2023-06-05T04:30:32;97197.66;;;18.04;85.39
61035;BME280;46916;40.564;-7.958;2023-06-05T04:32:34;97201.97;;;18.05;85.40
61035;BME280;46916;40.564;-7.958;2023-06-05T04:34:37;97199.94;;;18.07;85.37
61035;BME280;46916;40.564;-7.958;2023-06-05T04:36:39;97194.47;;;18.09;85.45
61035;BME280;46916;40.564;-7.958;2023-06-05T04:38:40;97198.56;;;18.11;85.41
61035;BME280;46916;40.564;-7.958;2023-06-05T04:40:41;97199.41;;;18.12;85.54
61035;BME280;46916;40.564;-7.958;2023-06-05T04:42:42;97203.88;;;18.11;85.66
61035;BME280;46916;40.564;-7.958;2023-06-05T04:44:43;97203.06;;;18.11;85.43
61035;BME280;46916;40.564;-7.958;2023-06-05T04:46:47;97189.00;;;18.10;85.69
61035;BME280;46916;40.564;-7.958;2023-06-05T04:48:48;97198.78;;;18.10;85.99
61035;BME280;46916;40.564;-7.958;2023-06-05T04:50:49;97197.75;;;18.11;86.08
61035;BME280;46916;40.564;-7.958;2023-06-05T04:52:50;97197.75;;;18.11;86.20
61035;BME280;46916;40.564;-7.958;2023-06-05T04:54:51;97198.78;;;18.10;85.61
61035;BME280;46916;40.564;-7.958;2023-06-05T04:56:52;97200.59;;;18.09;85.88
61035;BME280;46916;40.564;-7.958;2023-06-05T04:58:55;97197.28;;;18.07;86.02
61035;BME280;46916;40.564;-7.958;2023-06-05T05:00:56;97194.03;;;18.05;86.43
61035;BME280;46916;40.564;-7.958;2023-06-05T05:03:07;97196.66;;;18.05;86.46
61035;BME280;46916;40.564;-7.958;2023-06-05T05:05:11;97197.84;;;18.02;86.28
61035;BME280;46916;40.564;-7.958;2023-06-05T05:07:16;97202.31;;;18.02;86.53
61035;BME280;46916;40.564;-7.958;2023-06-05T05:09:17;97206.00;;;18.01;86.68
61035;BME280;46916;40.564;-7.958;2023-06-05T05:11:19;97204.50;;;17.98;86.64
61035;BME280;46916;40.564;-7.958;2023-06-05T05:13:21;97204.50;;;17.98;86.85
61035;BME280;46916;40.564;-7.958;2023-06-05T05:15:22;97205.34;;;17.99;86.89
61035;BME280;46916;40.564;-7.958;2023-06-05T05:17:23;97203.50;;;17.99;87.01
61035;BME280;46916;40.564;-7.958;2023-06-05T05:19:24;97206.16;;;17.99;87.05
61035;BME280;46916;40.564;-7.958;2023-06-05T05:21:25;97207.97;;;17.99;87.05
61035;BME280;46916;40.564;-7.958;2023-06-05T05:23:27;97205.53;;;17.97;87.10
61035;BME280;46916;40.564;-7.958;2023-06-05T05:25:28;97211.84;;;17.96;87.40
61035;BME280;46916;40.564;-7.958;2023-06-05T05:27:29;97216.94;;;17.98;87.18
61035;BME280;46916;40.564;-7.958;2023-06-05T05:29:30;97215.94;;;17.99;87.01
61035;BME280;46916;40.564;-7.958;2023-06-05T05:31:34;97210.47;;;18.00;86.82
61035;BME280;46916;40.564;-7.958;2023-06-05T05:33:35;97210.63;;;17.99;86.98
61035;BME280;46916;40.564;-7.958;2023-06-05T05:35:37;97209.91;;;17.90;87.21
61035;BME280;46916;40.564;-7.958;2023-06-05T05:37:38;97209.53;;;17.93;87.28
61035;BME280;46916;40.564;-7.958;2023-06-05T05:39:39;97211.00;;;17.96;87.29
61035;BME280;46916;40.564;-7.958;2023-06-05T05:41:40;97209.19;;;17.96;87.39
61035;BME280;46916;40.564;-7.958;2023-06-05T05:43:41;97211.66;;;17.98;87.28
61035;BME280;46916;40.564;-7.958;2023-06-05T05:45:41;97216.75;;;17.99;87.18
61035;BME280;46916;40.564;-7.958;2023-06-05T05:47:44;97212.47;;;17.98;87.09
61035;BME280;46916;40.564;-7.958;2023-06-05T05:49:45;97221.41;;;17.97;87.16
61035;BME280;46916;40.564;-7.958;2023-06-05T05:51:46;97223.06;;;17.98;87.07
61035;BME280;46916;40.564;-7.958;2023-06-05T05:53:46;97223.06;;;17.98;87.06
61035;BME280;46916;40.564;-7.958;2023-06-05T05:55:47;97222.03;;;17.99;86.89
61035;BME280;46916;40.564;-7.958;2023-06-05T05:57:48;97222.88;;;18.00;87.40
61035;BME280;46916;40.564;-7.958;2023-06-05T05:59:48;97218.41;;;18.00;87.58
61035;BME280;46916;40.564;-7.958;2023-06-05T06:01:49;97227.00;;;18.02;87.39
61035;BME280;46916;40.564;-7.958;2023-06-05T06:03:50;97225.16;;;18.03;87.24
61035;BME280;46916;40.564;-7.958;2023-06-05T06:05:51;97230.47;;;18.03;87.15
61035;BME280;46916;40.564;-7.958;2023-06-05T06:07:52;97228.00;;;18.01;87.24
61035;BME280;46916;40.564;-7.958;2023-06-05T06:09:53;97225.53;;;18.00;87.05
61035;BME280;46916;40.564;-7.958;2023-06-05T06:11:54;97224.06;;;17.97;87.15
61035;BME280;46916;40.564;-7.958;2023-06-05T06:13:55;97222.69;;;17.87;87.87
61035;BME280;46916;40.564;-7.958;2023-06-05T06:15:56;97221.13;;;17.77;88.37
61035;BME280;46916;40.564;-7.958;2023-06-05T06:17:57;97221.94;;;17.78;88.46
61035;BME280;46916;40.564;-7.958;2023-06-05T06:19:57;97224.22;;;17.81;88.29
61035;BME280;46916;40.564;-7.958;2023-06-05T06:21:58;97227.50;;;17.83;88.46
61035;BME280;46916;40.564;-7.958;2023-06-05T06:23:59;97222.06;;;17.85;88.22
61035;BME280;46916;40.564;-7.958;2023-06-05T06:25:59;97223.88;;;17.84;88.28
61035;BME280;46916;40.564;-7.958;2023-06-05T06:28:01;97228.88;;;17.79;88.14
61035;BME280;46916;40.564;-7.958;2023-06-05T06:30:02;97224.41;;;17.79;87.90
61035;BME280;46916;40.564;-7.958;2023-06-05T06:32:04;97225.41;;;17.78;87.92
61035;BME280;46916;40.564;-7.958;2023-06-05T06:34:04;97226.22;;;17.79;87.75
61035;BME280;46916;40.564;-7.958;2023-06-05T06:36:05;97222.88;;;17.85;87.90
61035;BME280;46916;40.564;-7.958;2023-06-05T06:38:06;97225.78;;;17.90;87.74
61035;BME280;46916;40.564;-7.958;2023-06-05T06:40:07;97227.44;;;17.91;87.77
61035;BME280;46916;40.564;-7.958;2023-06-05T06:42:11;97229.91;;;17.93;87.72
61035;BME280;46916;40.564;-7.958;2023-06-05T06:44:16;97230.53;;;17.95;87.67
61035;BME280;46916;40.564;-7.958;2023-06-05T06:46:16;97230.38;;;17.96;87.51
61035;BME280;46916;40.564;-7.958;2023-06-05T06:48:17;97230.38;;;17.96;87.34
61035;BME280;46916;40.564;-7.958;2023-06-05T06:50:18;97236.66;;;17.95;87.19
61035;BME280;46916;40.564;-7.958;2023-06-05T06:52:19;97232.38;;;17.94;87.06
61035;BME280;46916;40.564;-7.958;2023-06-05T06:54:20;97235.69;;;17.96;86.92
61035;BME280;46916;40.564;-7.958;2023-06-05T06:56:22;97234.00;;;17.95;86.67
61035;BME280;46916;40.564;-7.958;2023-06-05T06:58:22;97228.91;;;17.94;86.69
61035;BME280;46916;40.564;-7.958;2023-06-05T07:00:24;97232.09;;;17.89;86.75
61035;BME280;46916;40.564;-7.958;2023-06-05T07:02:25;97231.81;;;17.84;86.83
61035;BME280;46916;40.564;-7.958;2023-06-05T07:04:26;97229.34;;;17.82;86.97
61035;BME280;46916;40.564;-7.958;2023-06-05T07:06:26;97235.47;;;17.83;87.00
61035;BME280;46916;40.564;-7.958;2023-06-05T07:08:27;97228.31;;;17.83;87.06
61035;BME280;46916;40.564;-7.958;2023-06-05T07:10:28;97225.25;;;17.80;87.32
61035;BME280;46916;40.564;-7.958;2023-06-05T07:12:29;97238.09;;;17.83;87.48
61035;BME280;46916;40.564;-7.958;2023-06-05T07:14:30;97227.16;;;17.86;87.75
61035;BME280;46916;40.564;-7.958;2023-06-05T07:16:33;97228.09;;;18.08;88.81
61035;BME280;46916;40.564;-7.958;2023-06-05T07:18:33;97233.50;;;18.29;87.76
61035;BME280;46916;40.564;-7.958;2023-06-05T07:20:34;97229.03;;;18.30;86.49
61035;BME280;46916;40.564;-7.958;2023-06-05T07:22:34;97229.56;;;18.11;86.87
61035;BME280;46916;40.564;-7.958;2023-06-05T07:24:36;97230.38;;;17.96;87.24
61035;BME280;46916;40.564;-7.958;2023-06-05T07:26:38;97226.97;;;17.88;87.59
61035;BME280;46916;40.564;-7.958;2023-06-05T07:28:39;97228.25;;;17.92;87.80
61035;BME280;46916;40.564;-7.958;2023-06-05T07:30:40;97231.91;;;17.91;87.99
61035;BME280;46916;40.564;-7.958;2023-06-05T07:32:43;97232.38;;;17.94;87.86
61035;BME280;46916;40.564;-7.958;2023-06-05T07:34:46;97233.31;;;18.01;87.62
61035;BME280;46916;40.564;-7.958;2023-06-05T07:36:47;97231.59;;;18.09;86.94
61035;BME280;46916;40.564;-7.958;2023-06-05T07:38:48;97230.22;;;18.13;86.54
61035;BME280;46916;40.564;-7.958;2023-06-05T07:40:50;97237.78;;;18.01;86.82
61035;BME280;46916;40.564;-7.958;2023-06-05T07:42:50;97239.78;;;17.99;87.13
61035;BME280;46916;40.564;-7.958;2023-06-05T07:44:51;97240.69;;;17.91;87.06
61035;BME280;46916;40.564;-7.958;2023-06-05T07:46:52;97252.59;;;17.72;87.82
61035;BME280;46916;40.564;-7.958;2023-06-05T07:48:52;97244.59;;;17.57;88.76
61035;BME280;46916;40.564;-7.958;2023-06-05T07:50:53;97249.13;;;17.49;89.37
61035;BME280;46916;40.564;-7.958;2023-06-05T07:53:12;97244.03;;;17.47;89.75
61035;BME280;46916;40.564;-7.958;2023-06-05T07:55:32;97245.59;;;17.56;89.38
61035;BME280;46916;40.564;-7.958;2023-06-05T07:57:51;97250.59;;;17.74;89.06
61035;BME280;46916;40.564;-7.958;2023-06-05T08:00:11;97243.34;;;17.68;89.41
61035;BME280;46916;40.564;-7.958;2023-06-05T08:02:31;97251.19;;;17.62;90.00
61035;BME280;46916;40.564;-7.958;2023-06-05T08:04:31;97258.31;;;17.61;90.27
61035;BME280;46916;40.564;-7.958;2023-06-05T08:06:32;97256.13;;;17.65;90.19
61035;BME280;46916;40.564;-7.958;2023-06-05T08:08:34;97254.94;;;17.67;89.89
61035;BME280;46916;40.564;-7.958;2023-06-05T08:10:34;97256.72;;;17.75;89.55
61035;BME280;46916;40.564;-7.958;2023-06-05T08:12:35;97255.34;;;17.79;89.19
61035;BME280;46916;40.564;-7.958;2023-06-05T08:14:35;97247.72;;;17.84;89.14
61035;BME280;46916;40.564;-7.958;2023-06-05T08:16:37;97247.91;;;17.97;88.24
61035;BME280;46916;40.564;-7.958;2023-06-05T08:18:37;97240.16;;;18.11;87.44
61035;BME280;46916;40.564;-7.958;2023-06-05T08:20:38;97238.06;;;18.21;86.49
61035;BME280;46916;40.564;-7.958;2023-06-05T08:22:39;97242.75;;;18.34;86.40
61035;BME280;46916;40.564;-7.958;2023-06-05T08:24:40;97241.28;;;18.46;85.70
61035;BME280;46916;40.564;-7.958;2023-06-05T08:26:41;97245.81;;;18.52;85.20
61035;BME280;46916;40.564;-7.958;2023-06-05T08:28:42;97237.16;;;18.43;84.85
61035;BME280;46916;40.564;-7.958;2023-06-05T08:30:42;97235.88;;;18.39;85.12
61035;BME280;46916;40.564;-7.958;2023-06-05T08:32:45;97237.97;;;18.44;85.09
61035;BME280;46916;40.564;-7.958;2023-06-05T08:34:46;97235.41;;;18.50;84.69
61035;BME280;46916;40.564;-7.958;2023-06-05T08:36:46;97243.06;;;18.60;84.23
61035;BME280;46916;40.564;-7.958;2023-06-05T08:38:47;97241.13;;;18.69;83.74
61035;BME280;46916;40.564;-7.958;2023-06-05T08:40:52;97236.22;;;18.80;83.13
61035;BME280;46916;40.564;-7.958;2023-06-05T08:42:59;97231.50;;;18.97;82.42
61035;BME280;46916;40.564;-7.958;2023-06-05T08:45:00;97227.28;;;19.03;82.16
61035;BME280;46916;40.564;-7.958;2023-06-05T08:47:02;97228.81;;;19.12;82.25
61035;BME280;46916;40.564;-7.958;2023-06-05T08:49:08;97218.63;;;19.16;81.79
61035;BME280;46916;40.564;-7.958;2023-06-05T08:51:11;97230.31;;;19.21;81.91
61035;BME280;46916;40.564;-7.958;2023-06-05T08:53:13;97227.88;;;19.20;82.00
61035;BME280;46916;40.564;-7.958;2023-06-05T08:55:17;97223.00;;;19.23;81.52
61035;BME280;46916;40.564;-7.958;2023-06-05T08:57:17;97221.16;;;19.24;81.89
61035;BME280;46916;40.564;-7.958;2023-06-05T08:59:19;97218.00;;;19.35;81.54
61035;BME280;46916;40.564;-7.958;2023-06-05T09:01:22;97220.72;;;19.42;81.36
61035;BME280;46916;40.564;-7.958;2023-06-05T09:03:23;97218.88;;;19.42;81.38
61035;BME280;46916;40.564;-7.958;2023-06-05T09:05:25;97214.81;;;19.46;81.20
61035;BME280;46916;40.564;-7.958;2023-06-05T09:07:28;97205.09;;;19.53;80.92
61035;BME280;46916;40.564;-7.958;2023-06-05T09:09:31;97206.63;;;19.63;80.49
61035;BME280;46916;40.564;-7.958;2023-06-05T09:11:32;97202.56;;;19.67;80.29
61035;BME280;46916;40.564;-7.958;2023-06-05T09:13:45;97198.72;;;19.69;80.02
61035;BME280;46916;40.564;-7.958;2023-06-05T09:15:50;97197.09;;;19.75;79.81
61035;BME280;46916;40.564;-7.958;2023-06-05T09:20:23;97201.50;;;19.89;79.24
61035;BME280;46916;40.564;-7.958;2023-06-05T09:22:34;97203.34;;;19.89;79.42
61035;BME280;46916;40.564;-7.958;2023-06-05T09:24:35;97198.47;;;19.92;79.41
61035;BME280;46916;40.564;-7.958;2023-06-05T09:26:51;97194.59;;;19.95;78.53
61035;BME280;46916;40.564;-7.958;2023-06-05T09:28:53;97193.81;;;20.01;77.24
61035;BME280;46916;40.564;-7.958;2023-06-05T09:31:03;97189.56;;;20.07;76.19
61035;BME280;46916;40.564;-7.958;2023-06-05T09:33:10;97195.91;;;20.12;76.17
61035;BME280;46916;40.564;-7.958;2023-06-05T09:35:16;97191.66;;;20.18;75.94
61035;BME280;46916;40.564;-7.958;2023-06-05T09:37:17;97190.06;;;20.23;76.24
61035;BME280;46916;40.564;-7.958;2023-06-05T09:39:18;97191.50;;;20.26;75.16
61035;BME280;46916;40.564;-7.958;2023-06-05T09:41:20;97189.06;;;20.31;75.96
61035;BME280;46916;40.564;-7.958;2023-06-05T09:43:21;97189.72;;;20.33;75.82
61035;BME280;46916;40.564;-7.958;2023-06-05T09:45:40;97188.69;;;20.41;76.46
61035;BME280;46916;40.564;-7.958;2023-06-05T09:47:42;97190.78;;;20.45;76.18
61035;BME280;46916;40.564;-7.958;2023-06-05T09:51:43;97190.00;;;20.51;75.97
61035;BME280;46916;40.564;-7.958;2023-06-05T09:53:45;97186.97;;;20.55;75.52
61035;BME280;46916;40.564;-7.958;2023-06-05T09:55:47;97191.25;;;20.56;75.23
61035;BME280;46916;40.564;-7.958;2023-06-05T09:57:51;97181.44;;;20.56;74.71
61035;BME280;46916;40.564;-7.958;2023-06-05T09:59:54;97186.38;;;20.59;74.87
61035;BME280;46916;40.564;-7.958;2023-06-05T10:01:55;97188.00;;;20.60;74.77
61035;BME280;46916;40.564;-7.958;2023-06-05T10:03:57;97189.47;;;20.63;74.50
61035;BME280;46916;40.564;-7.958;2023-06-05T10:05:58;97189.06;;;20.66;74.23
61035;BME280;46916;40.564;-7.958;2023-06-05T10:07:59;97191.13;;;20.70;73.78
61035;BME280;46916;40.564;-7.958;2023-06-05T10:10:00;97189.50;;;20.76;72.66
61035;BME280;46916;40.564;-7.958;2023-06-05T10:12:03;97184.81;;;20.78;72.60
61035;BME280;46916;40.564;-7.958;2023-06-05T10:14:05;97185.41;;;20.80;72.42
61035;BME280;46916;40.564;-7.958;2023-06-05T10:16:07;97185.44;;;20.87;72.01
61035;BME280;46916;40.564;-7.958;2023-06-05T10:18:08;97178.09;;;20.95;71.43
61035;BME280;46916;40.564;-7.958;2023-06-05T10:20:10;97182.81;;;21.00;70.42
61035;BME280;46916;40.564;-7.958;2023-06-05T10:22:12;97178.50;;;20.99;70.72
61035;BME280;46916;40.564;-7.958;2023-06-05T10:24:17;97179.13;;;21.01;70.43
61035;BME280;46916;40.564;-7.958;2023-06-05T10:29:16;97166.25;;;21.11;71.52
61035;BME280;46916;40.564;-7.958;2023-06-05T10:38:17;97162.81;;;21.37;72.11
61035;BME280;46916;40.564;-7.958;2023-06-05T10:40:19;97150.50;;;21.43;71.54
61035;BME280;46916;40.564;-7.958;2023-06-05T10:42:25;97153.81;;;21.51;71.28
61035;BME280;46916;40.564;-7.958;2023-06-05T10:44:43;97150.94;;;21.60;70.49
61035;BME280;46916;40.564;-7.958;2023-06-05T10:46:44;97151.31;;;21.63;70.20
61035;BME280;46916;40.564;-7.958;2023-06-05T10:49:16;97148.06;;;21.68;69.94
61035;BME280;46916;40.564;-7.958;2023-06-05T10:53:45;97141.66;;;21.82;67.59
61035;BME280;46916;40.564;-7.958;2023-06-05T10:55:47;97138.59;;;21.85;67.39
61035;BME280;46916;40.564;-7.958;2023-06-05T10:58:13;97142.25;;;21.91;67.15
61035;BME280;46916;40.564;-7.958;2023-06-05T11:00:17;97137.94;;;21.96;67.31
61035;BME280;46916;40.564;-7.958;2023-06-05T11:02:22;97133.41;;;22.04;67.43
61035;BME280;46916;40.564;-7.958;2023-06-05T11:04:23;97126.22;;;22.11;67.38